Time;durP1;ratioP1;P1;durP2;ratioP2;P2;SDS_P1;SDS_P2;PMS_P1;PMS_P2;Temp;Humidity;BMP_temperature;BMP_pressure;BME280_temperature;BME280_humidity;BME280_pressure;Samples;Min_cycle;Max_cycle;Signal;HPM_P1;HPM_P2
2024/02/01 00:02:49;;;;;;;1999.90;999.90;;;;;;;7.14;100.00;102336.38;10321678;28;20054;-67
2024/02/01 00:07:52;;;;;;;1999.90;999.90;;;;;;;7.22;100.00;102338.84;10338462;28;20074;-67
2024/02/01 00:12:54;;;;;;;1999.90;999.90;;;;;;;7.15;100.00;102332.91;10338220;28;20129;-67
2024/02/01 00:17:56;;;;;;;1999.90;999.90;;;;;;;7.31;100.00;102335.22;10337948;28;20058;-68
2024/02/01 00:22:59;;;;;;;1999.90;999.90;;;;;;;7.16;100.00;102328.53;10337022;28;20513;-68
2024/02/01 00:28:02;;;;;;;1999.90;999.90;;;;;;;7.21;100.00;102338.00;10337657;28;20125;-67
2024/02/01 00:33:05;;;;;;;1999.90;999.90;;;;;;;7.28;100.00;102340.47;10337409;28;20105;-67
2024/02/01 00:38:07;;;;;;;1999.90;999.90;;;;;;;7.30;100.00;102352.59;10320269;28;20129;-67
2024/02/01 00:43:10;;;;;;;1999.90;999.90;;;;;;;7.21;100.00;102334.50;10318582;28;20133;-67
2024/02/01 00:48:12;;;;;;;1999.90;999.90;;;;;;;7.36;100.00;102341.19;10336862;28;20046;-67
2024/02/01 00:53:15;;;;;;;1999.90;999.90;;;;;;;7.42;100.00;102338.47;10336021;28;20073;-67
2024/02/01 00:58:17;;;;;;;1999.90;999.90;;;;;;;7.32;100.00;102329.13;10336433;28;20129;-67
2024/02/01 01:03:19;;;;;;;1999.90;999.90;;;;;;;7.37;100.00;102327.28;10336264;28;20058;-68
2024/02/01 01:08:22;;;;;;;1999.90;999.90;;;;;;;7.33;100.00;102330.81;10303087;28;20053;-67
2024/02/01 01:13:24;;;;;;;1999.90;999.90;;;;;;;7.52;100.00;102333.94;10335945;28;20057;-67
2024/02/01 01:18:27;;;;;;;1999.90;999.90;;;;;;;7.54;100.00;102312.16;10335631;28;20050;-68
2024/02/01 01:23:29;;;;;;;1999.90;999.90;;;;;;;7.65;100.00;102314.56;10335302;28;20065;-68
2024/02/01 01:28:32;;;;;;;1999.90;999.90;;;;;;;7.48;100.00;102321.84;10335599;28;20101;-67
2024/02/01 01:33:34;;;;;;;1999.90;999.90;;;;;;;7.53;100.00;102320.88;10334581;28;20421;-68
2024/02/01 01:38:37;;;;;;;1999.90;999.90;;;;;;;7.75;100.00;102317.81;10335079;28;20050;-68
2024/02/01 01:43:40;;;;;;;1999.90;999.90;;;;;;;7.68;100.00;102330.09;10334915;28;20082;-68
2024/02/01 01:48:42;;;;;;;1999.90;999.90;;;;;;;7.71;100.00;102329.19;10334805;28;20097;-68
2024/02/01 01:53:46;;;;;;;1999.90;999.90;;;;;;;7.77;100.00;102342.13;10316524;28;20159;-68
2024/02/01 01:58:49;;;;;;;1999.90;999.90;;;;;;;7.82;100.00;102350.69;10317551;28;20058;-68
2024/02/01 02:03:51;;;;;;;1999.90;999.90;;;;;;;7.84;100.00;102342.84;10316577;28;20129;-68
2024/02/01 02:08:54;;;;;;;1999.90;999.90;;;;;;;7.94;100.00;102344.38;10334283;28;20062;-68
2024/02/01 02:13:56;;;;;;;1999.90;999.90;;;;;;;7.92;100.00;102343.56;10334097;28;20481;-68
2024/02/01 02:19:08;;;;;;;1999.90;999.90;;;;;;;7.91;100.00;102350.50;10334170;28;20046;-68
2024/02/01 02:24:13;;;;;;;1999.90;999.90;;;;;;;8.11;100.00;102359.66;10333145;28;20118;-68
2024/02/01 02:29:16;;;;;;;1999.90;999.90;;;;;;;8.11;100.00;102364.88;10316729;28;20085;-68
2024/02/01 02:34:18;;;;;;;1999.90;999.90;;;;;;;8.05;100.00;102378.03;10316761;28;20078;-68
2024/02/01 02:39:22;;;;;;;1999.90;999.90;;;;;;;8.13;100.00;102370.91;10333940;28;20110;-68
2024/02/01 02:44:24;;;;;;;1999.90;999.90;;;;;;;8.23;100.00;102376.78;10333718;28;20046;-68
2024/02/01 02:49:27;;;;;;;1999.90;999.90;;;;;;;8.38;100.00;102377.28;10332983;28;20405;-68
2024/02/01 02:54:29;;;;;;;1999.90;999.90;;;;;;;8.55;100.00;102373.44;10332819;28;20053;-68
2024/02/01 02:59:31;;;;;;;1999.90;999.90;;;;;;;8.61;100.00;102368.09;10333429;28;20057;-68
2024/02/01 03:04:34;;;;;;;1999.90;999.90;;;;;;;8.71;100.00;102373.97;10334443;28;20116;-68
2024/02/01 03:09:37;;;;;;;1999.90;999.90;;;;;;;8.66;100.00;102381.06;10340682;28;20057;-68
2024/02/01 03:14:42;;;;;;;1999.90;999.90;;;;;;;8.70;100.00;102367.84;10340429;28;20050;-68
2024/02/01 03:19:49;;;;;;;1999.90;999.90;;;;;;;8.68;100.00;102374.88;10323079;28;20046;-68
2024/02/01 03:24:58;;;;;;;1999.90;999.90;;;;;;;8.64;100.00;102388.91;10339496;28;20050;-68
2024/02/01 03:30:02;;;;;;;1999.90;999.90;;;;;;;8.74;100.00;102397.38;10323115;28;20104;-68
2024/02/01 03:35:05;;;;;;;1999.90;999.90;;;;;;;8.73;100.00;102404.34;10321907;28;20402;-68
2024/02/01 03:40:09;;;;;;;1999.90;999.90;;;;;;;8.67;100.00;102420.16;10353658;23;20046;-66
2024/02/01 03:45:11;;;;;;;1999.90;999.90;;;;;;;8.67;100.00;102425.38;10338796;28;20573;-68
2024/02/01 03:50:14;;;;;;;1999.90;999.90;;;;;;;8.72;100.00;102415.72;10339316;28;20054;-67
2024/02/01 03:55:16;;;;;;;1999.90;999.90;;;;;;;8.72;100.00;102420.94;10338922;28;20046;-67
2024/02/01 04:00:25;;;;;;;1999.90;999.90;;;;;;;8.43;100.00;102437.25;10338862;28;20053;-67
2024/02/01 04:05:28;;;;;;;1999.90;999.90;;;;;;;8.48;100.00;102435.38;10338029;28;20121;-67
2024/02/01 04:10:30;;;;;;;1999.90;999.90;;;;;;;8.46;100.00;102458.06;10338346;28;20055;-67
2024/02/01 04:15:33;;;;;;;1999.90;999.90;;;;;;;8.30;100.00;102456.63;10336558;28;20406;-67
2024/02/01 04:20:38;;;;;;;1999.90;999.90;;;;;;;8.31;100.00;102487.06;10320797;28;20137;-67
2024/02/01 04:25:41;;;;;;;1999.90;999.90;;;;;;;8.13;100.00;102514.38;10320364;28;20055;-67
2024/02/01 04:30:50;;;;;;;1999.90;999.90;;;;;;;7.80;100.00;102517.63;10337613;28;20105;-67
2024/02/01 04:35:53;;;;;;;1999.90;999.90;;;;;;;7.61;100.00;102527.50;10319969;28;20057;-67
2024/02/01 04:40:55;;;;;;;1999.90;999.90;;;;;;;7.65;100.00;102549.19;10336630;28;20081;-67
2024/02/01 04:45:57;;;;;;;1999.90;999.90;;;;;;;7.37;100.00;102547.00;10336397;28;20053;-67
2024/02/01 04:51:00;;;;;;;1999.90;999.90;;;;;;;7.15;100.00;102563.88;10319561;28;20050;-67
2024/02/01 04:56:02;;;;;;;1999.90;999.90;;;;;;;7.06;100.00;102576.16;10336530;28;20042;-67
2024/02/01 05:01:09;;;;;;;1999.90;999.90;;;;;;;6.85;100.00;102582.50;10335759;28;20536;-67
2024/02/01 05:06:13;;;;;;;1999.90;999.90;;;;;;;6.61;100.00;102588.03;10336242;28;20054;-67
2024/02/01 05:11:15;;;;;;;1999.90;999.90;;;;;;;6.50;100.00;102593.34;10336051;28;20065;-67
2024/02/01 05:16:17;;;;;;;1999.90;999.90;;;;;;;6.14;100.00;102603.28;10335784;28;20042;-67
2024/02/01 05:21:20;;;;;;;1999.90;999.90;;;;;;;6.07;100.00;102610.28;10335671;28;20061;-67
2024/02/01 05:26:22;;;;;;;1999.90;999.90;;;;;;;5.84;100.00;102620.84;10317695;28;20116;-67
2024/02/01 05:31:27;;;;;;;1999.90;999.90;;;;;;;5.88;100.00;102629.47;10335394;28;20086;-67
2024/02/01 05:36:29;;;;;;;1999.90;999.90;;;;;;;5.84;100.00;102627.78;10335136;28;20104;-67
2024/02/01 05:41:31;;;;;;;1999.90;999.90;;;;;;;5.48;100.00;102630.66;10334377;28;20054;-67
2024/02/01 05:46:34;;;;;;;1999.90;999.90;;;;;;;5.30;100.00;102639.41;10317757;28;20050;-68
2024/02/01 05:51:38;;;;;;;1999.90;999.90;;;;;;;5.40;100.00;102646.28;10334756;28;20050;-66
2024/02/01 05:56:44;;;;;;;1999.90;999.90;;;;;;;5.56;100.00;102656.56;10301354;28;20050;-66
2024/02/01 06:01:47;;;;;;;1999.90;999.90;;;;;;;5.21;100.00;102658.53;10317659;28;20057;-66
2024/02/01 06:06:49;;;;;;;1999.90;999.90;;;;;;;4.89;100.00;102662.97;10317146;28;20053;-66
2024/02/01 06:11:52;;;;;;;1999.90;999.90;;;;;;;4.88;100.00;102685.47;10334326;28;20057;-66
2024/02/01 06:16:54;;;;;;;1999.90;999.90;;;;;;;5.15;100.00;102684.50;10333530;28;20478;-67
2024/02/01 06:21:58;;;;;;;1999.90;999.90;;;;;;;4.90;100.00;102709.69;10333541;28;20057;-66
2024/02/01 06:27:01;;;;;;;1999.90;999.90;;;;;;;4.87;100.00;102708.84;10334003;28;20046;-66
2024/02/01 06:32:08;;;;;;;1999.90;999.90;;;;;;;4.72;100.00;102717.53;10333996;28;20124;-66
2024/02/01 06:37:12;;;;;;;1999.90;999.90;;;;;;;4.61;100.00;102733.13;10317195;28;20043;-66
2024/02/01 06:42:17;;;;;;;1999.90;999.90;;;;;;;4.69;100.00;102730.50;10339213;28;20058;-66
2024/02/01 06:47:36;;;;;;;1999.90;999.90;;;;;;;4.66;100.00;102739.19;10341118;28;20405;-66
2024/02/01 06:52:43;;;;;;;1999.90;999.90;;;;;;;4.82;100.00;102740.88;10341464;28;20054;-66
2024/02/01 06:58:03;;;;;;;1999.90;999.90;;;;;;;4.71;100.00;102740.03;10341189;28;20042;-67
2024/02/01 07:19:12;;;;;;;1999.90;999.90;;;;;;;4.52;100.00;102769.44;10323679;28;20450;-66
2024/02/01 07:24:27;;;;;;;1999.90;999.90;;;;;;;4.55;100.00;102788.47;10340219;28;20061;-66
2024/02/01 08:02:01;;;;;;;1999.90;999.90;;;;;;;4.94;100.00;102862.00;10338787;28;20138;-66
2024/02/01 08:12:20;;;;;;;1999.90;999.90;;;;;;;5.36;100.00;102860.19;10337914;28;20050;-67
2024/02/01 08:17:22;;;;;;;1999.90;999.90;;;;;;;5.27;100.00;102869.72;10338123;28;20042;-66
2024/02/01 08:22:25;;;;;;;1999.90;999.90;;;;;;;5.29;100.00;102874.03;10338005;28;20046;-66
2024/02/01 08:27:27;;;;;;;1999.90;999.90;;;;;;;6.27;100.00;102874.53;10337157;28;20053;-67
2024/02/01 08:32:29;;;;;;;1999.90;999.90;;;;;;;7.54;99.41;102869.97;10337644;28;20112;-67
2024/02/01 08:37:33;;;;;;;1999.90;999.90;;;;;;;7.73;93.70;102881.06;10336483;28;20129;-67
2024/02/01 08:42:35;;;;;;;1999.90;999.90;;;;;;;8.68;88.43;102888.47;10319452;28;20512;-67
2024/02/01 08:47:38;;;;;;;1999.90;999.90;;;;;;;8.58;87.30;102892.97;10336296;28;20054;-67
2024/02/01 08:52:45;;;;;;;1999.90;999.90;;;;;;;8.88;85.90;102909.88;10319881;28;20054;-67
2024/02/01 08:57:48;;;;;;;1999.90;999.90;;;;;;;9.17;87.33;102916.38;10319671;28;20130;-67
2024/02/01 09:03:03;;;;;;;1999.90;999.90;;;;;;;9.54;82.69;102920.91;10336004;28;20133;-66
2024/02/01 09:08:08;;;;;;;1999.90;999.90;;;;;;;9.25;79.42;102924.94;10336163;28;20042;-67
2024/02/01 09:13:15;;;;;;;1999.90;999.90;;;;;;;10.26;78.37;102920.34;10319088;28;20050;-67
2024/02/01 09:18:18;;;;;;;1999.90;999.90;;;;;;;10.35;77.32;102926.25;10335875;28;20057;-67
2024/02/01 09:23:23;;;;;;;1999.90;999.90;;;;;;;11.95;76.58;102925.69;10317855;28;20050;-67
2024/02/01 09:28:26;;;;;;;1999.90;999.90;;;;;;;11.19;73.75;102942.59;10318729;28;20069;-67
2024/02/01 09:33:34;;;;;;;1999.90;999.90;;;;;;;11.03;71.50;102945.63;10334790;28;20081;-67
2024/02/01 09:38:37;;;;;;;1999.90;999.90;;;;;;;12.26;74.29;102949.28;10334655;28;20054;-67
2024/02/01 09:43:40;;;;;;;1999.90;999.90;;;;;;;12.10;73.30;102954.09;10317858;28;20054;-67
2024/02/01 09:48:44;;;;;;;1999.90;999.90;;;;;;;12.02;73.41;102959.59;10334753;28;20126;-67
2024/02/01 09:53:51;;;;;;;1999.90;999.90;;;;;;;13.19;70.31;102953.28;10317404;28;20101;-67
2024/02/01 09:58:55;;;;;;;1999.90;999.90;;;;;;;13.67;67.63;102961.34;10334462;28;20054;-67
2024/02/01 10:04:01;;;;;;;1999.90;999.90;;;;;;;13.29;67.95;102968.75;10333793;28;20456;-67
2024/02/01 10:09:22;;;;;;;1999.90;999.90;;;;;;;13.67;68.44;102977.97;10333730;28;20478;-67
2024/02/01 10:14:35;;;;;;;1999.90;999.90;;;;;;;15.22;65.38;102988.69;10335976;28;20101;-68
2024/02/01 10:19:40;;;;;;;1999.90;999.90;;;;;;;13.94;65.58;103018.25;10342527;28;20050;-68
2024/02/01 10:24:47;;;;;;;1999.90;999.90;;;;;;;13.70;65.70;103017.34;10342008;28;20383;-68
2024/02/01 10:29:49;;;;;;;1999.90;999.90;;;;;;;15.09;64.67;103005.97;10341652;28;20473;-68
2024/02/01 10:34:53;;;;;;;1999.90;999.90;;;;;;;12.60;69.31;103032.31;10324141;28;20050;-68
2024/02/01 10:40:06;;;;;;;1999.90;999.90;;;;;;;11.96;73.44;103016.66;10341304;28;20059;-68
2024/02/01 10:45:09;;;;;;;1999.90;999.90;;;;;;;13.72;66.21;102997.09;10341561;28;20061;-68
2024/02/01 10:50:14;;;;;;;1999.90;999.90;;;;;;;13.26;68.28;103006.53;10308323;28;20078;-68
2024/02/01 10:55:18;;;;;;;1999.90;999.90;;;;;;;11.62;69.92;103015.78;10323497;28;20050;-68
2024/02/01 11:00:21;;;;;;;1999.90;999.90;;;;;;;11.36;72.57;103016.44;10323824;28;20129;-68
2024/02/01 11:05:31;;;;;;;1999.90;999.90;;;;;;;12.36;71.62;103005.03;10340272;28;20100;-68
2024/02/01 11:10:33;;;;;;;1999.90;999.90;;;;;;;13.40;66.81;102997.34;10322883;28;20405;-68
2024/02/01 11:15:36;;;;;;;1999.90;999.90;;;;;;;15.03;63.73;103012.38;10340574;28;20130;-68
2024/02/01 11:20:39;;;;;;;1999.90;999.90;;;;;;;14.17;63.10;103013.03;10339684;28;20553;-68
2024/02/01 11:25:42;;;;;;;1999.90;999.90;;;;;;;13.49;64.67;103018.94;10339610;28;20050;-68
2024/02/01 11:30:52;;;;;;;1999.90;999.90;;;;;;;12.35;67.57;103001.50;10339937;28;20056;-68
2024/02/01 11:36:06;;;;;;;1999.90;999.90;;;;;;;15.31;62.11;103011.19;10339276;28;20477;-68
2024/02/01 11:41:10;;;;;;;1999.90;999.90;;;;;;;13.30;63.78;103009.94;10338866;28;20062;-68
2024/02/01 11:46:12;;;;;;;1999.90;999.90;;;;;;;13.45;64.96;103022.63;10339436;28;20081;-68
2024/02/01 11:51:15;;;;;;;1999.90;999.90;;;;;;;11.44;69.70;103026.75;10322197;28;20058;-68
2024/02/01 11:56:21;;;;;;;1999.90;999.90;;;;;;;11.58;70.43;103021.16;10321021;28;20383;-68
2024/02/01 12:01:23;;;;;;;1999.90;999.90;;;;;;;11.10;71.32;103014.50;10321459;28;20494;-69
2024/02/01 12:06:29;;;;;;;1999.90;999.90;;;;;;;10.96;71.09;103015.69;10322079;28;20062;-69
2024/02/01 12:11:34;;;;;;;1999.90;999.90;;;;;;;10.51;72.32;103018.44;10338527;28;20054;-68
2024/02/01 12:16:37;;;;;;;1999.90;999.90;;;;;;;10.32;71.87;103014.47;10321325;28;20051;-68
2024/02/01 12:21:40;;;;;;;1999.90;999.90;;;;;;;10.27;75.86;103022.41;10320233;28;20203;-69
2024/02/01 12:26:42;;;;;;;1999.90;999.90;;;;;;;9.62;75.61;103018.41;10320565;28;20125;-69
2024/02/01 12:31:49;;;;;;;1999.90;999.90;;;;;;;9.47;78.75;102998.63;10320443;28;20050;-69
2024/02/01 12:36:52;;;;;;;1999.90;999.90;;;;;;;9.16;76.81;103016.56;10336118;28;20493;-69
2024/02/01 12:41:54;;;;;;;1999.90;999.90;;;;;;;9.99;77.97;103022.94;10319438;28;20113;-69
2024/02/01 12:46:57;;;;;;;1999.90;999.90;;;;;;;10.10;77.12;103029.72;10337122;28;20100;-69
2024/02/01 12:52:04;;;;;;;1999.90;999.90;;;;;;;10.81;74.15;103013.41;10319906;28;20081;-69
2024/02/01 12:57:08;;;;;;;1999.90;999.90;;;;;;;10.73;76.10;103015.34;10336129;28;20082;-69
2024/02/01 13:02:10;;;;;;;1999.90;999.90;;;;;;;10.49;76.53;103021.97;10318784;28;20487;-69
2024/02/01 13:07:13;;;;;;;1999.90;999.90;;;;;;;10.15;75.40;103028.72;10335702;28;20112;-69
2024/02/01 13:12:21;;;;;;;1999.90;999.90;;;;;;;10.09;78.18;103018.41;10336311;28;20050;-69
2024/02/01 13:17:29;;;;;;;1999.90;999.90;;;;;;;9.22;77.31;103015.63;10335917;28;20046;-69
2024/02/01 13:22:32;;;;;;;1999.90;999.90;;;;;;;9.57;77.45;103022.00;10318653;28;20050;-69
2024/02/01 13:27:34;;;;;;;1999.90;999.90;;;;;;;10.06;75.81;103010.59;10334973;28;20137;-69
2024/02/01 13:32:38;;;;;;;1999.90;999.90;;;;;;;9.83;74.80;103022.41;10318448;28;20046;-69
2024/02/01 13:37:40;;;;;;;1999.90;999.90;;;;;;;9.49;75.06;103028.22;10335180;28;20054;-69
2024/02/01 13:42:43;;;;;;;1999.90;999.90;;;;;;;9.21;76.95;103020.00;10335113;28;20056;-69
2024/02/01 13:47:49;;;;;;;1999.90;999.90;;;;;;;8.97;76.38;103022.97;10317605;28;20081;-69
2024/02/01 13:52:56;;;;;;;1999.90;999.90;;;;;;;9.82;73.45;103010.19;10318790;28;20104;-69
2024/02/01 13:57:59;;;;;;;1999.90;999.90;;;;;;;8.78;75.99;103007.56;10301478;28;20497;-69
2024/02/01 14:03:01;;;;;;;1999.90;999.90;;;;;;;9.72;74.95;103013.88;10334590;28;20050;-69
2024/02/01 14:08:08;;;;;;;1999.90;999.90;;;;;;;9.69;75.19;103013.06;10334663;28;20085;-68
2024/02/01 14:13:11;;;;;;;1999.90;999.90;;;;;;;9.49;75.28;103011.66;10333820;28;20582;-68
2024/02/01 14:18:13;;;;;;;1999.90;999.90;;;;;;;10.27;72.10;103006.72;10316948;28;20051;-68
2024/02/01 14:23:17;;;;;;;1999.90;999.90;;;;;;;9.48;75.79;103013.44;10316379;28;20513;-68
2024/02/01 14:28:19;;;;;;;1999.90;999.90;;;;;;;9.57;76.84;103025.47;10333642;28;20082;-68
2024/02/01 14:33:22;;;;;;;1999.90;999.90;;;;;;;9.19;77.11;103020.88;10333269;28;20061;-68
2024/02/01 14:38:26;;;;;;;1999.90;999.90;;;;;;;9.08;78.83;103019.31;10332980;28;20418;-68
2024/02/01 14:43:28;;;;;;;1999.90;999.90;;;;;;;8.99;76.73;103027.28;10333899;28;20061;-68
2024/02/01 14:48:31;;;;;;;1999.90;999.90;;;;;;;9.18;77.85;103047.91;10333707;28;20080;-68
2024/02/01 14:53:33;;;;;;;1999.90;999.90;;;;;;;9.09;78.13;103041.06;10316463;28;20109;-68
2024/02/01 14:58:36;;;;;;;1999.90;999.90;;;;;;;9.10;77.50;103041.03;10333479;28;20057;-68
2024/02/01 15:03:38;;;;;;;1999.90;999.90;;;;;;;9.20;77.38;103046.16;10339989;28;20054;-68
2024/02/01 15:08:41;;;;;;;1999.90;999.90;;;;;;;9.09;78.31;103055.03;10350919;28;20501;-68
2024/02/01 15:13:44;;;;;;;1999.90;999.90;;;;;;;8.54;78.08;103046.19;10380656;28;20060;-68
2024/02/01 15:18:47;;;;;;;1999.90;999.90;;;;;;;8.66;78.93;103049.53;10360678;28;20053;-68
2024/02/01 15:23:50;;;;;;;1999.90;999.90;;;;;;;8.42;80.09;103068.94;10339761;28;20100;-68
2024/02/01 15:28:55;;;;;;;1999.90;999.90;;;;;;;8.34;80.13;103084.72;10340286;28;20053;-68
2024/02/01 15:33:58;;;;;;;1999.90;999.90;;;;;;;8.19;79.28;103081.38;10322997;28;20050;-68
2024/02/01 15:39:00;;;;;;;1999.90;999.90;;;;;;;8.12;79.50;103084.94;10339274;28;20061;-68
2024/02/01 15:44:04;;;;;;;1999.90;999.90;;;;;;;8.19;80.34;103083.97;10339617;28;20078;-68
2024/02/01 15:49:07;;;;;;;1999.90;999.90;;;;;;;8.03;81.65;103084.16;10337614;28;20482;-68
2024/02/01 15:54:10;;;;;;;1999.90;999.90;;;;;;;7.88;82.40;103103.44;10367039;23;20074;-67
2024/02/01 15:59:13;;;;;;;1999.90;999.90;;;;;;;7.49;83.35;103101.13;10378447;28;20078;-67
2024/02/01 16:04:15;;;;;;;1999.90;999.90;;;;;;;7.43;83.90;103091.63;10378808;28;20424;-66
2024/02/01 16:09:19;;;;;;;1999.90;999.90;;;;;;;7.51;84.40;103094.16;10377461;28;20046;-67
2024/02/01 16:14:23;;;;;;;1999.90;999.90;;;;;;;7.41;84.14;103096.00;10376633;28;20050;-66
2024/02/01 16:19:34;;;;;;;1999.90;999.90;;;;;;;7.16;84.61;103091.81;10376953;28;20408;-69
2024/02/01 16:24:37;;;;;;;1999.90;999.90;;;;;;;7.24;86.16;103090.88;10377511;28;20046;-66
2024/02/01 16:29:54;;;;;;;1999.90;999.90;;;;;;;7.02;86.71;103097.13;10377510;28;20050;-66
2024/02/01 16:34:58;;;;;;;1999.90;999.90;;;;;;;6.57;88.50;103110.31;10377606;28;20050;-67
2024/02/01 16:40:01;;;;;;;1999.90;999.90;;;;;;;6.55;88.80;103121.63;10376176;28;20485;-66
2024/02/01 16:45:06;;;;;;;1999.90;999.90;;;;;;;6.58;89.14;103130.28;10377256;28;20443;-66
2024/02/01 16:50:15;;;;;;;1999.90;999.90;;;;;;;6.28;90.47;103133.84;10375922;28;20497;-67
2024/02/01 16:55:50;;;;;;;1999.90;999.90;;;;;;;6.16;91.90;103133.88;10376658;28;20058;-66
2024/02/01 17:00:56;;;;;;;1999.90;999.90;;;;;;;5.99;94.21;103129.56;10376125;28;20052;-66
2024/02/01 17:06:06;;;;;;;1999.90;999.90;;;;;;;5.68;95.69;103119.13;10359814;28;20054;-66
2024/02/01 17:11:12;;;;;;;1999.90;999.90;;;;;;;5.96;96.29;103111.34;10375675;28;20076;-66
2024/02/01 17:16:36;;;;;;;1999.90;999.90;;;;;;;5.49;97.10;103120.84;10376603;28;20088;-66
2024/02/01 17:21:39;;;;;;;1999.90;999.90;;;;;;;5.52;98.91;103131.25;10376514;28;20084;-66
2024/02/01 17:26:42;;;;;;;1999.90;999.90;;;;;;;5.36;98.68;103126.88;10375281;28;20129;-66
2024/02/01 17:31:45;;;;;;;1999.90;999.90;;;;;;;5.32;100.00;103135.53;10374409;28;20097;-66
2024/02/01 17:36:48;;;;;;;1999.90;999.90;;;;;;;5.01;100.00;103130.28;10375251;28;20507;-66
2024/02/01 17:41:51;;;;;;;1999.90;999.90;;;;;;;4.95;100.00;103136.28;10374692;28;20134;-66
2024/02/01 17:47:06;;;;;;;1999.90;999.90;;;;;;;4.88;100.00;103138.88;10374526;28;20124;-66
2024/02/01 17:52:35;;;;;;;1999.90;999.90;;;;;;;4.99;100.00;103145.84;10374463;28;20077;-66
2024/02/01 17:57:40;;;;;;;1999.90;999.90;;;;;;;4.98;100.00;103138.91;10373622;28;20490;-66
2024/02/01 18:02:48;;;;;;;1999.90;999.90;;;;;;;4.63;100.00;103138.75;10373519;28;20054;-66
2024/02/01 18:07:52;;;;;;;1999.90;999.90;;;;;;;4.67;100.00;103150.03;10357962;28;20118;-66
2024/02/01 18:12:56;;;;;;;1999.90;999.90;;;;;;;4.46;100.00;103156.84;10373863;28;20060;-66
2024/02/01 18:17:58;;;;;;;1999.90;999.90;;;;;;;4.79;100.00;103158.75;10374880;28;20046;-66
2024/02/01 18:23:01;;;;;;;1999.90;999.90;;;;;;;4.49;100.00;103169.81;10373619;28;20054;-66
2024/02/01 18:28:04;;;;;;;1999.90;999.90;;;;;;;4.74;100.00;103165.66;10374777;28;20046;-66
2024/02/01 18:33:11;;;;;;;1999.90;999.90;;;;;;;4.63;100.00;103177.69;10356859;28;20489;-66
2024/02/01 18:38:35;;;;;;;1999.90;999.90;;;;;;;4.62;100.00;103176.81;10380754;28;20085;-66
2024/02/01 18:43:38;;;;;;;1999.90;999.90;;;;;;;4.82;100.00;103179.53;10382656;28;20069;-66
2024/02/01 18:48:42;;;;;;;1999.90;999.90;;;;;;;4.96;100.00;103178.69;10382369;28;20073;-66
2024/02/01 18:53:48;;;;;;;1999.90;999.90;;;;;;;4.83;100.00;103173.47;10364239;28;20054;-66
2024/02/01 18:58:51;;;;;;;1999.90;999.90;;;;;;;4.51;100.00;103175.88;10380163;28;20124;-66
2024/02/01 19:04:05;;;;;;;1999.90;999.90;;;;;;;4.50;100.00;103173.28;10381761;28;20125;-66
2024/02/01 19:09:21;;;;;;;1999.90;999.90;;;;;;;4.73;100.00;103166.50;10381174;28;20409;-66
2024/02/01 19:14:42;;;;;;;1999.90;999.90;;;;;;;4.58;100.00;103154.31;10380742;28;20517;-66
2024/02/01 19:19:46;;;;;;;1999.90;999.90;;;;;;;4.47;100.00;103154.25;10380028;28;20125;-66
2024/02/01 19:24:50;;;;;;;1999.90;999.90;;;;;;;4.57;100.00;103164.66;10363324;28;20054;-66
2024/02/01 19:29:52;;;;;;;1999.90;999.90;;;;;;;4.63;100.00;103167.31;10379008;28;20054;-66
2024/02/01 19:34:55;;;;;;;1999.90;999.90;;;;;;;4.57;100.00;103173.34;10380647;28;20049;-66
2024/02/01 19:39:58;;;;;;;1999.90;999.90;;;;;;;4.58;100.00;103171.59;10380374;28;20053;-66
2024/02/01 19:45:00;;;;;;;1999.90;999.90;;;;;;;4.54;100.00;103180.22;10379665;28;20053;-66
2024/02/01 19:50:03;;;;;;;1999.90;999.90;;;;;;;4.50;100.00;103174.13;10378559;28;20085;-66
2024/02/01 19:55:06;;;;;;;1999.90;999.90;;;;;;;4.54;100.00;103170.72;10379355;28;20060;-66
2024/02/01 20:00:08;;;;;;;1999.90;999.90;;;;;;;4.58;100.00;103169.00;10379583;28;20052;-66
2024/02/01 20:05:11;;;;;;;1999.90;999.90;;;;;;;4.34;100.00;103168.00;10377709;28;20046;-66
2024/02/01 20:10:13;;;;;;;1999.90;999.90;;;;;;;4.49;100.00;103164.63;10378632;28;20052;-66
2024/02/01 20:15:16;;;;;;;1999.90;999.90;;;;;;;4.44;100.00;103174.13;10379072;28;20053;-66
2024/02/01 20:20:23;;;;;;;1999.90;999.90;;;;;;;4.33;100.00;103175.78;10376989;28;20535;-66
2024/02/01 20:25:29;;;;;;;1999.90;999.90;;;;;;;4.43;100.00;103175.81;10377564;28;20081;-66
2024/02/01 20:30:32;;;;;;;1999.90;999.90;;;;;;;4.37;100.00;103175.81;10361499;28;20052;-66
2024/02/01 20:35:35;;;;;;;1999.90;999.90;;;;;;;4.45;100.00;103174.13;10361105;28;20049;-66
2024/02/01 20:40:42;;;;;;;1999.90;999.90;;;;;;;4.45;100.00;103181.03;10360604;28;20072;-66
2024/02/01 20:45:51;;;;;;;1999.90;999.90;;;;;;;4.53;100.00;103183.69;10359904;28;20510;-66
2024/02/01 20:50:59;;;;;;;1999.90;999.90;;;;;;;4.64;100.00;103187.22;10377767;28;20041;-66
2024/02/01 20:56:02;;;;;;;1999.90;999.90;;;;;;;4.77;100.00;103189.00;10376922;28;20124;-66
2024/02/01 21:01:04;;;;;;;1999.90;999.90;;;;;;;4.65;100.00;103200.16;10375852;28;20072;-66
2024/02/01 21:06:07;;;;;;;1999.90;999.90;;;;;;;4.77;100.00;103194.19;10377067;28;20050;-66
2024/02/01 21:11:15;;;;;;;1999.90;999.90;;;;;;;4.71;100.00;103186.38;10375744;28;20108;-66
2024/02/01 21:16:50;;;;;;;1999.90;999.90;;;;;;;4.83;100.00;103178.66;10376746;28;20057;-66
2024/02/01 21:21:53;;;;;;;1999.90;999.90;;;;;;;4.73;100.00;103160.44;10375503;28;20128;-66
2024/02/01 21:26:56;;;;;;;1999.90;999.90;;;;;;;5.05;100.00;103149.31;10376270;28;20050;-66
2024/02/01 21:32:03;;;;;;;1999.90;999.90;;;;;;;5.05;100.00;103139.78;10358102;28;20132;-66
2024/02/01 21:37:16;;;;;;;1999.90;999.90;;;;;;;4.86;100.00;103122.41;10375042;28;20056;-66
2024/02/01 21:42:27;;;;;;;1999.90;999.90;;;;;;;4.79;100.00;103125.00;10374122;28;20524;-66
2024/02/01 21:47:30;;;;;;;1999.90;999.90;;;;;;;4.79;100.00;103127.59;10375741;28;20049;-66
2024/02/01 21:52:33;;;;;;;1999.90;999.90;;;;;;;4.85;100.00;103118.97;10375120;28;20100;-66
2024/02/01 21:57:35;;;;;;;1999.90;999.90;;;;;;;5.00;100.00;103107.75;10374492;28;20058;-66
2024/02/01 22:02:38;;;;;;;1999.90;999.90;;;;;;;4.78;100.00;103112.88;10375319;28;20084;-66
2024/02/01 22:07:41;;;;;;;1999.90;999.90;;;;;;;4.93;100.00;103126.78;10373372;28;20513;-66
2024/02/01 22:12:43;;;;;;;1999.90;999.90;;;;;;;4.74;100.00;103118.03;10375024;28;20085;-66
2024/02/01 22:17:46;;;;;;;1999.90;999.90;;;;;;;4.85;100.00;103126.75;10374914;28;20060;-66
2024/02/01 22:22:48;;;;;;;1999.90;999.90;;;;;;;5.07;100.00;103117.28;10373111;28;20133;-66
2024/02/01 22:27:51;;;;;;;1999.90;999.90;;;;;;;4.98;100.00;103112.09;10374264;28;20497;-66
2024/02/01 22:32:54;;;;;;;1999.90;999.90;;;;;;;4.76;100.00;103099.03;10374691;28;20077;-66
2024/02/01 22:37:56;;;;;;;1999.90;999.90;;;;;;;4.93;100.00;103099.09;10374540;28;20045;-66
2024/02/01 22:42:59;;;;;;;1999.90;999.90;;;;;;;5.04;100.00;103104.28;10373814;28;20560;-66
2024/02/01 22:48:01;;;;;;;1999.90;999.90;;;;;;;5.08;100.00;103093.06;10374385;28;20104;-66
2024/02/01 22:53:04;;;;;;;1999.90;999.90;;;;;;;5.02;100.00;103103.44;10373171;28;20061;-66
2024/02/01 22:58:07;;;;;;;1999.90;999.90;;;;;;;5.22;100.00;103091.34;10373245;28;20137;-66
2024/02/01 23:03:09;;;;;;;1999.90;999.90;;;;;;;5.15;100.00;103076.63;10373473;28;20413;-66